Time;durP1;ratioP1;P1;durP2;ratioP2;P2;SDS_P1;SDS_P2;PMS_P1;PMS_P2;Temp;Humidity;BMP_temperature;BMP_pressure;BME280_temperature;BME280_humidity;BME280_pressure;Samples;Min_cycle;Max_cycle;Signal;HPM_P1;HPM_P2
2022/12/05 00:00:51;;;;;;;0.00;0.00;;;5.60;99.90;;;;;;5005087;28;20095;-70
2022/12/05 00:03:17;;;;;;;0.00;0.00;;;5.70;99.90;;;;;;5006963;28;20430;-70
2022/12/05 00:05:42;;;;;;;0.00;0.00;;;5.80;99.90;;;;;;5004049;28;20040;-70
2022/12/05 00:08:08;;;;;;;0.00;0.00;;;5.80;99.90;;;;;;5005692;28;20034;-70
2022/12/05 00:10:37;;;;;;;0.00;0.00;;;5.70;99.90;;;;;;5003946;28;20480;-70
2022/12/05 00:13:03;;;;;;;0.00;0.00;;;5.70;99.90;;;;;;5005422;28;20030;-69
2022/12/05 00:15:29;;;;;;;0.00;0.00;;;5.70;99.90;;;;;;5003293;28;20139;-70
2022/12/05 00:17:55;;;;;;;0.00;0.00;;;5.60;99.90;;;;;;5004910;28;20037;-70
2022/12/05 00:20:21;;;;;;;0.00;0.00;;;5.40;99.90;;;;;;5006492;28;20038;-71
2022/12/05 00:22:46;;;;;;;0.00;0.00;;;5.50;99.90;;;;;;5003555;28;20579;-70
2022/12/05 00:25:12;;;;;;;0.00;0.00;;;5.60;99.90;;;;;;5004990;28;20094;-69
2022/12/05 00:27:38;;;;;;;0.00;0.00;;;5.40;99.90;;;;;;5002498;28;20479;-70
2022/12/05 00:30:05;;;;;;;0.00;0.00;;;5.50;99.90;;;;;;5005442;28;20022;-70
2022/12/05 00:32:31;;;;;;;0.00;0.00;;;5.40;99.90;;;;;;4996964;28;20124;-69
2022/12/05 00:34:56;;;;;;;0.00;0.00;;;5.50;99.90;;;;;;4998554;28;20070;-70
2022/12/05 00:37:22;;;;;;;0.00;0.00;;;5.40;99.90;;;;;;5001054;28;20109;-70
2022/12/05 00:39:48;;;;;;;0.00;0.00;;;5.40;99.90;;;;;;4998873;28;20049;-71
2022/12/05 00:42:14;;;;;;;0.00;0.00;;;5.50;99.90;;;;;;5003558;28;20455;-70
2022/12/05 00:44:39;;;;;;;0.00;0.00;;;5.50;99.90;;;;;;5002271;28;20036;-70
2022/12/05 00:47:05;;;;;;;0.00;0.00;;;5.60;99.90;;;;;;5020237;28;20057;-69
2022/12/05 00:49:30;;;;;;;0.00;0.00;;;5.60;99.90;;;;;;5001409;28;20113;-70
2022/12/05 00:51:56;;;;;;;0.00;0.00;;;5.70;99.90;;;;;;5002517;28;20172;-69
2022/12/05 00:54:23;;;;;;;0.00;0.00;;;5.50;99.90;;;;;;5000985;28;20064;-70
2022/12/05 00:56:51;;;;;;;0.00;0.00;;;5.50;99.90;;;;;;5003126;28;20026;-70
2022/12/05 00:59:18;;;;;;;0.00;0.00;;;5.30;99.90;;;;;;5000741;28;20033;-70
2022/12/05 01:01:46;;;;;;;0.00;0.00;;;5.30;99.90;;;;;;5002761;28;20030;-69
2022/12/05 01:04:30;;;;;;;0.00;0.00;;;5.40;99.90;;;;;;5002062;28;20053;-70
2022/12/05 01:06:57;;;;;;;0.00;0.00;;;5.50;99.90;;;;;;5001596;28;20033;-71
2022/12/05 01:09:24;;;;;;;0.00;0.00;;;5.40;99.90;;;;;;5000829;28;20041;-70
2022/12/05 01:11:50;;;;;;;0.00;0.00;;;5.30;99.90;;;;;;5002811;28;20051;-71
2022/12/05 01:14:17;;;;;;;;;;;5.30;99.90;;;;;;5002795;28;20451;-71
2022/12/05 01:16:46;;;;;;;0.00;0.00;;;5.20;99.90;;;;;;5004102;28;19914;-71
2022/12/05 01:19:21;;;;;;;0.00;0.00;;;5.20;99.90;;;;;;5003344;28;20048;-70
2022/12/05 01:21:47;;;;;;;0.00;0.00;;;5.30;99.90;;;;;;5003142;28;20076;-70
2022/12/05 01:24:13;;;;;;;0.00;0.00;;;5.40;99.90;;;;;;5004446;28;20038;-70
2022/12/05 01:26:39;;;;;;;;;;;5.50;99.90;;;;;;5003874;28;20042;-70
2022/12/05 01:29:04;;;;;;;0.00;0.00;;;5.40;99.90;;;;;;5002710;28;19916;-69
2022/12/05 01:31:33;;;;;;;0.00;0.00;;;5.40;99.90;;;;;;5006339;28;20388;-70
2022/12/05 01:34:00;;;;;;;0.00;0.00;;;5.30;99.90;;;;;;5004036;28;20483;-70
2022/12/05 01:36:26;;;;;;;0.00;0.00;;;5.20;99.90;;;;;;5004106;28;20036;-70
2022/12/05 01:38:53;;;;;;;0.00;0.00;;;5.20;99.90;;;;;;5001786;28;20028;-69
2022/12/05 01:41:22;;;;;;;0.00;0.00;;;5.20;99.90;;;;;;5005090;28;20028;-70
2022/12/05 01:44:03;;;;;;;0.00;0.00;;;5.10;99.90;;;;;;5001905;28;20030;-69
2022/12/05 01:46:32;;;;;;;0.00;0.00;;;5.20;99.90;;;;;;5004329;28;20152;-70
2022/12/05 01:49:07;;;;;;;0.00;0.00;;;5.30;99.90;;;;;;5007062;28;20392;-70
2022/12/05 01:51:34;;;;;;;0.00;0.00;;;5.30;99.90;;;;;;5003672;28;20046;-70
2022/12/05 01:54:01;;;;;;;0.00;0.00;;;5.20;99.90;;;;;;5005587;28;20117;-70
2022/12/05 01:56:27;;;;;;;0.00;0.00;;;5.30;99.90;;;;;;5006505;28;20061;-69
2022/12/05 01:58:54;;;;;;;0.00;0.00;;;5.20;99.90;;;;;;5003894;28;20104;-69
2022/12/05 02:01:20;;;;;;;0.00;0.00;;;5.40;99.90;;;;;;5005400;28;20537;-69
2022/12/05 02:03:49;;;;;;;0.00;0.00;;;5.40;99.90;;;;;;5002898;28;20026;-69
2022/12/05 02:06:15;;;;;;;0.00;0.00;;;5.40;99.90;;;;;;5008038;28;20065;-69
2022/12/05 02:08:42;;;;;;;0.00;0.00;;;5.40;99.90;;;;;;5005909;28;20034;-69
2022/12/05 02:11:08;;;;;;;0.00;0.00;;;5.30;99.90;;;;;;5007086;28;20026;-71
2022/12/05 02:13:58;;;;;;;0.00;0.00;;;5.40;99.90;;;;;;5005350;28;20034;-70
2022/12/05 02:16:47;;;;;;;0.00;0.00;;;5.30;99.90;;;;;;5005272;28;20032;-69
2022/12/05 02:19:35;;;;;;;0.00;0.00;;;5.40;99.90;;;;;;5011386;28;20143;-70
2022/12/05 02:22:35;;;;;;;0.00;0.00;;;5.60;99.90;;;;;;5003943;28;20460;-71
2022/12/05 02:25:36;;;;;;;0.00;0.00;;;5.60;99.90;;;;;;5004208;28;20034;-70
2022/12/05 02:28:17;;;;;;;0.00;0.00;;;5.60;99.90;;;;;;5000417;28;20113;-70
2022/12/05 02:30:46;;;;;;;0.00;0.00;;;5.60;99.90;;;;;;5003389;28;20030;-70
2022/12/05 02:33:35;;;;;;;0.00;0.00;;;5.60;99.90;;;;;;5002761;28;20046;-70
2022/12/05 02:36:24;;;;;;;0.00;0.00;;;5.60;99.90;;;;;;4999779;28;20249;-70
2022/12/05 02:39:15;;;;;;;0.00;0.00;;;5.60;99.90;;;;;;5000854;28;20030;-71
2022/12/05 02:41:50;;;;;;;0.00;0.00;;;5.50;99.90;;;;;;5012705;28;20681;-70
2022/12/05 02:44:37;;;;;;;0.00;0.00;;;5.50;99.90;;;;;;5016374;28;20116;-70
2022/12/05 02:47:05;;;;;;;0.00;0.00;;;5.60;99.90;;;;;;4997547;28;20038;-70
2022/12/05 02:49:35;;;;;;;0.00;0.00;;;5.60;99.90;;;;;;4999065;28;20060;-70
2022/12/05 02:52:03;;;;;;;0.00;0.00;;;5.60;99.90;;;;;;5002226;28;20057;-71
2022/12/05 02:54:32;;;;;;;0.00;0.00;;;5.60;99.90;;;;;;4999494;28;20088;-71
2022/12/05 02:56:59;;;;;;;0.00;0.00;;;5.60;99.90;;;;;;4997772;28;20022;-70
2022/12/05 02:59:25;;;;;;;0.00;0.00;;;5.60;99.90;;;;;;5001979;28;20065;-70
2022/12/05 03:01:51;;;;;;;0.00;0.00;;;5.70;99.90;;;;;;5002346;28;20057;-71
2022/12/05 03:04:19;;;;;;;;;;;5.70;99.90;;;;;;5000494;28;20419;-70
2022/12/05 03:06:59;;;;;;;0.00;0.00;;;5.70;99.90;;;;;;4999518;28;19940;-70
2022/12/05 03:09:34;;;;;;;0.00;0.00;;;5.70;99.90;;;;;;4998688;28;20030;-70
2022/12/05 03:12:11;;;;;;;0.00;0.00;;;5.60;99.90;;;;;;5007665;28;20034;-70
2022/12/05 03:14:42;;;;;;;0.00;0.00;;;5.60;99.90;;;;;;4998248;28;20048;-70
2022/12/05 03:17:11;;;;;;;0.00;0.00;;;5.50;99.90;;;;;;5005145;28;20025;-69
2022/12/05 03:19:55;;;;;;;0.00;0.00;;;5.50;99.90;;;;;;5016030;28;20038;-70
2022/12/05 03:22:34;;;;;;;0.00;0.00;;;5.60;99.90;;;;;;4998644;28;20476;-70
2022/12/05 03:25:01;;;;;;;0.00;0.00;;;5.60;99.90;;;;;;4998869;28;20337;-70
2022/12/05 03:27:40;;;;;;;0.00;0.00;;;5.60;99.90;;;;;;5000186;28;20061;-70
2022/12/05 03:30:11;;;;;;;0.00;0.00;;;5.60;99.90;;;;;;4999057;28;20041;-70
2022/12/05 03:33:18;;;;;;;0.00;0.00;;;5.60;99.90;;;;;;4997312;28;20164;-70
2022/12/05 03:35:58;;;;;;;0.00;0.00;;;5.80;99.90;;;;;;4997942;28;20361;-70
2022/12/05 03:38:44;;;;;;;0.00;0.00;;;5.90;99.90;;;;;;4998218;28;20040;-70
2022/12/05 03:41:21;;;;;;;0.00;0.00;;;5.80;99.90;;;;;;4995821;28;20036;-70
2022/12/05 03:43:52;;;;;;;0.00;0.00;;;5.70;99.90;;;;;;4997797;28;20334;-70
2022/12/05 03:46:23;;;;;;;0.00;0.00;;;5.80;99.90;;;;;;5003124;28;20136;-71
2022/12/05 03:49:04;;;;;;;0.00;0.00;;;5.80;99.90;;;;;;5005166;28;20062;-71
2022/12/05 03:51:42;;;;;;;0.00;0.00;;;5.70;99.90;;;;;;5001945;28;20060;-70
2022/12/05 03:54:18;;;;;;;0.00;0.00;;;5.70;99.90;;;;;;5019571;28;20052;-70
2022/12/05 03:56:50;;;;;;;0.00;0.00;;;5.60;99.90;;;;;;5002086;28;20074;-70
2022/12/05 03:59:24;;;;;;;0.00;0.00;;;5.70;99.90;;;;;;5003943;28;20084;-71
2022/12/05 04:01:52;;;;;;;0.00;0.00;;;5.90;99.90;;;;;;5000091;28;21577;-70
2022/12/05 04:04:30;;;;;;;0.00;0.00;;;5.90;99.90;;;;;;5007648;28;20028;-70
2022/12/05 04:06:59;;;;;;;0.00;0.00;;;5.90;99.90;;;;;;5001850;28;20029;-71
2022/12/05 04:09:32;;;;;;;0.00;0.00;;;5.80;99.90;;;;;;5002855;28;20026;-70
2022/12/05 04:12:02;;;;;;;0.00;0.00;;;5.80;99.90;;;;;;5002478;28;20080;-70
2022/12/05 04:14:36;;;;;;;0.00;0.00;;;5.80;99.90;;;;;;5007598;28;20076;-70
2022/12/05 04:17:10;;;;;;;0.00;0.00;;;5.80;99.90;;;;;;5005824;28;20026;-70
2022/12/05 04:22:35;;;;;;;0.00;0.00;;;5.70;99.90;;;;;;5004730;28;20302;-70
2022/12/05 04:27:54;;;;;;;0.00;0.00;;;5.80;99.90;;;;;;5002371;28;20036;-69
2022/12/05 04:30:26;;;;;;;0.00;0.00;;;5.90;99.90;;;;;;5004171;28;20396;-70
2022/12/05 04:33:09;;;;;;;0.00;0.00;;;6.00;99.90;;;;;;5003742;28;20623;-70
2022/12/05 04:35:42;;;;;;;0.00;0.00;;;6.00;99.90;;;;;;5003465;28;20026;-71
2022/12/05 04:38:38;;;;;;;0.00;0.00;;;6.00;99.90;;;;;;5002168;28;20038;-70
2022/12/05 04:41:13;;;;;;;0.00;0.00;;;5.90;99.90;;;;;;4999438;28;20114;-70
2022/12/05 04:43:41;;;;;;;0.00;0.00;;;5.90;99.90;;;;;;5007288;28;20472;-70
2022/12/05 04:46:10;;;;;;;0.00;0.00;;;5.70;99.90;;;;;;5001879;28;20475;-70
2022/12/05 04:48:39;;;;;;;0.00;0.00;;;5.70;99.90;;;;;;4998627;28;20025;-70
2022/12/05 04:51:15;;;;;;;0.00;0.00;;;5.70;99.90;;;;;;5002679;28;20060;-70
2022/12/05 04:53:43;;;;;;;0.00;0.00;;;5.70;99.90;;;;;;5003849;28;20073;-70
2022/12/05 04:56:10;;;;;;;0.00;0.00;;;5.70;99.90;;;;;;5004665;28;20030;-70
2022/12/05 04:58:36;;;;;;;0.00;0.00;;;5.70;99.90;;;;;;5001592;28;20022;-70
2022/12/05 05:01:24;;;;;;;0.00;0.00;;;5.80;99.90;;;;;;5001416;28;20506;-70
2022/12/05 05:03:59;;;;;;;0.00;0.00;;;5.80;99.90;;;;;;5006643;28;20695;-70
2022/12/05 05:06:26;;;;;;;0.00;0.00;;;5.80;99.90;;;;;;5003719;28;20036;-69
2022/12/05 05:08:54;;;;;;;0.00;0.00;;;5.80;99.90;;;;;;5020802;28;20113;-69
2022/12/05 05:11:25;;;;;;;0.00;0.00;;;5.70;99.90;;;;;;5003621;28;20034;-71
2022/12/05 05:13:52;;;;;;;0.00;0.00;;;5.90;99.90;;;;;;5000223;28;20125;-71
2022/12/05 05:16:26;;;;;;;0.00;0.00;;;6.00;99.90;;;;;;5002380;28;20023;-70
2022/12/05 05:18:52;;;;;;;0.00;0.00;;;6.00;99.90;;;;;;5004045;28;20084;-70
2022/12/05 05:21:38;;;;;;;;;;;5.90;99.90;;;;;;5004550;28;20344;-71
2022/12/05 05:24:05;;;;;;;0.00;0.00;;;5.90;99.90;;;;;;5002109;28;20326;-70
2022/12/05 05:26:34;;;;;;;0.00;0.00;;;5.90;99.90;;;;;;5004880;28;20859;-70
2022/12/05 05:29:01;;;;;;;0.00;0.00;;;5.90;99.90;;;;;;5002651;28;20558;-70
2022/12/05 05:31:27;;;;;;;0.00;0.00;;;5.80;99.90;;;;;;5004470;28;20092;-70
2022/12/05 05:33:56;;;;;;;0.00;0.00;;;5.80;99.90;;;;;;5001542;28;20030;-70
2022/12/05 05:36:23;;;;;;;0.00;0.00;;;6.00;99.90;;;;;;5001186;28;20038;-71
2022/12/05 05:38:52;;;;;;;0.00;0.00;;;5.90;99.90;;;;;;5003662;28;20471;-70
2022/12/05 05:41:32;;;;;;;0.00;0.00;;;5.90;99.90;;;;;;5004494;28;20117;-70
2022/12/05 05:43:58;;;;;;;0.00;0.00;;;6.00;99.90;;;;;;5000255;28;20480;-70
2022/12/05 05:46:27;;;;;;;0.00;0.00;;;6.00;99.90;;;;;;5003631;28;20141;-70
2022/12/05 05:48:53;;;;;;;0.00;0.00;;;6.00;99.90;;;;;;5000894;28;20027;-70
2022/12/05 05:51:20;;;;;;;0.00;0.00;;;6.00;99.90;;;;;;5002368;28;20022;-70
2022/12/05 05:53:46;;;;;;;0.00;0.00;;;6.00;99.90;;;;;;5001713;28;20034;-69
2022/12/05 05:56:15;;;;;;;0.00;0.00;;;6.00;99.90;;;;;;5002860;28;20472;-70
2022/12/05 05:58:41;;;;;;;0.00;0.00;;;6.10;99.90;;;;;;5004217;28;20076;-70
2022/12/05 06:01:08;;;;;;;;;;;6.00;99.90;;;;;;5004483;28;20100;-70
2022/12/05 06:03:34;;;;;;;0.00;0.00;;;6.10;99.90;;;;;;5003819;28;19916;-71
2022/12/05 06:06:03;;;;;;;0.00;0.00;;;6.00;99.90;;;;;;5001175;28;20040;-70
2022/12/05 06:08:35;;;;;;;0.00;0.00;;;5.90;99.90;;;;;;5005813;28;20034;-71
2022/12/05 06:11:24;;;;;;;0.00;0.00;;;6.00;99.90;;;;;;5002635;28;20041;-70
2022/12/05 06:13:50;;;;;;;0.00;0.00;;;6.00;99.90;;;;;;5006801;28;20034;-72
2022/12/05 06:16:17;;;;;;;0.00;0.00;;;5.90;99.90;;;;;;5005586;28;20044;-71
2022/12/05 06:18:43;;;;;;;0.00;0.00;;;5.90;99.90;;;;;;5003843;28;20092;-71
2022/12/05 06:21:09;;;;;;;0.00;0.00;;;5.90;99.90;;;;;;5004936;28;20050;-71
2022/12/05 06:23:36;;;;;;;0.00;0.00;;;5.90;99.90;;;;;;5004736;28;20117;-70
2022/12/05 06:26:03;;;;;;;0.00;0.00;;;5.90;99.90;;;;;;5001984;28;20098;-70
2022/12/05 06:28:30;;;;;;;0.00;0.00;;;5.90;99.90;;;;;;5003391;28;20116;-71
2022/12/05 06:30:56;;;;;;;0.00;0.00;;;6.00;99.90;;;;;;5005710;28;20065;-70
2022/12/05 06:33:21;;;;;;;0.00;0.00;;;6.00;99.90;;;;;;5002914;28;20042;-69
2022/12/05 06:35:47;;;;;;;0.00;0.00;;;6.00;99.90;;;;;;5008590;28;20042;-70
2022/12/05 06:38:13;;;;;;;0.00;0.00;;;6.00;99.90;;;;;;5006289;28;20026;-71
2022/12/05 06:40:41;;;;;;;0.00;0.00;;;6.00;99.90;;;;;;5006559;28;20034;-71
2022/12/05 06:43:06;;;;;;;0.00;0.00;;;6.10;99.90;;;;;;5006046;28;20038;-70
2022/12/05 06:45:32;;;;;;;0.00;0.00;;;6.10;99.90;;;;;;5012812;28;20439;-71
2022/12/05 06:47:57;;;;;;;0.00;0.00;;;6.10;99.90;;;;;;5009996;28;20042;-72
2022/12/05 06:50:23;;;;;;;0.00;0.00;;;6.10;99.90;;;;;;5010783;28;20441;-71
2022/12/05 06:52:50;;;;;;;0.00;0.00;;;6.10;99.90;;;;;;5012727;28;20045;-71
2022/12/05 06:55:16;;;;;;;0.00;0.00;;;6.40;99.90;;;;;;5010448;28;20032;-71
2022/12/05 06:57:41;;;;;;;0.00;0.00;;;6.30;99.90;;;;;;5008766;28;20118;-71
2022/12/05 07:02:52;;;;;;;0.00;0.00;;;6.20;99.90;;;;;;5010313;28;20042;-71
2022/12/05 07:05:18;;;;;;;0.00;0.00;;;6.30;99.90;;;;;;5008411;28;20096;-71
2022/12/05 07:07:44;;;;;;;0.00;0.00;;;6.30;99.90;;;;;;5009000;28;20030;-71
2022/12/05 07:10:10;;;;;;;0.00;0.00;;;6.20;99.90;;;;;;5006321;28;20491;-71
2022/12/05 07:12:36;;;;;;;0.00;0.00;;;6.30;99.90;;;;;;5009899;28;20201;-71
2022/12/05 07:15:02;;;;;;;0.00;0.00;;;6.20;99.90;;;;;;5009773;28;20084;-71
2022/12/05 07:17:27;;;;;;;0.00;0.00;;;6.20;99.90;;;;;;5010260;28;20034;-69
2022/12/05 07:19:53;;;;;;;0.00;0.00;;;6.20;99.90;;;;;;5010392;28;20083;-71
2022/12/05 07:22:20;;;;;;;0.00;0.00;;;6.20;99.90;;;;;;5008918;28;20061;-70
2022/12/05 07:24:46;;;;;;;0.00;0.00;;;6.30;99.90;;;;;;5004422;28;20147;-70
2022/12/05 07:27:13;;;;;;;0.00;0.00;;;6.40;99.90;;;;;;5007440;28;20480;-70
2022/12/05 07:29:39;;;;;;;0.00;0.00;;;6.30;99.90;;;;;;5006097;28;20161;-71
2022/12/05 07:32:05;;;;;;;0.00;0.00;;;6.20;99.90;;;;;;5004324;28;20161;-71
2022/12/05 07:34:31;;;;;;;0.00;0.00;;;6.20;99.90;;;;;;5009067;28;20416;-69
2022/12/05 07:36:56;;;;;;;0.00;0.00;;;6.20;99.90;;;;;;5004694;28;20518;-69
2022/12/05 07:39:22;;;;;;;0.00;0.00;;;6.30;99.90;;;;;;5001675;28;20030;-70
2022/12/05 07:41:47;;;;;;;0.00;0.00;;;6.30;99.90;;;;;;5006456;28;20025;-70
2022/12/05 07:44:13;;;;;;;0.00;0.00;;;6.20;99.90;;;;;;5005845;28;20034;-71
2022/12/05 07:46:39;;;;;;;0.00;0.00;;;6.20;99.90;;;;;;5005488;28;20434;-72
2022/12/05 07:49:06;;;;;;;;;;;6.20;99.90;;;;;;5007577;28;20060;-70
2022/12/05 07:51:32;;;;;;;0.00;0.00;;;6.10;99.90;;;;;;5020672;28;19921;-71
2022/12/05 07:53:58;;;;;;;0.00;0.00;;;6.20;99.90;;;;;;5007793;28;20056;-72
2022/12/05 07:56:24;;;;;;;0.00;0.00;;;6.20;99.90;;;;;;4999958;28;20308;-71
2022/12/05 07:58:50;;;;;;;0.00;0.00;;;6.20;99.90;;;;;;5004772;28;20029;-72
2022/12/05 08:01:18;;;;;;;0.00;0.00;;;6.20;99.90;;;;;;5000851;28;20283;-71
2022/12/05 08:03:45;;;;;;;0.00;0.00;;;6.30;99.90;;;;;;5003587;28;20038;-71
2022/12/05 08:06:13;;;;;;;0.00;0.00;;;6.30;99.90;;;;;;5010006;28;20030;-73
2022/12/05 08:08:39;;;;;;;0.00;0.00;;;6.30;99.90;;;;;;5009110;28;20396;-72
2022/12/05 08:11:14;;;;;;;0.00;0.00;;;6.30;99.90;;;;;;5009939;28;20030;-74
2022/12/05 08:13:40;;;;;;;0.00;0.00;;;6.20;99.90;;;;;;5006669;28;20054;-73
2022/12/05 08:16:09;;;;;;;0.00;0.00;;;6.20;99.90;;;;;;5005332;28;20403;-73
2022/12/05 08:18:35;;;;;;;0.00;0.00;;;6.20;99.90;;;;;;5008420;28;20097;-73
2022/12/05 08:21:10;;;;;;;0.00;0.00;;;6.30;99.90;;;;;;5010885;28;20112;-74
2022/12/05 08:23:36;;;;;;;0.00;0.00;;;6.30;99.90;;;;;;5005114;28;20516;-72
2022/12/05 08:26:09;;;;;;;0.00;0.00;;;6.40;99.90;;;;;;5006697;28;20109;-72
2022/12/05 08:28:35;;;;;;;0.00;0.00;;;6.30;99.90;;;;;;5000510;28;20306;-73
2022/12/05 08:31:06;;;;;;;0.00;0.00;;;6.40;99.90;;;;;;5001889;28;20573;-72
2022/12/05 08:33:31;;;;;;;0.00;0.00;;;6.50;99.90;;;;;;5004839;28;20106;-71
2022/12/05 08:36:00;;;;;;;0.00;0.00;;;6.50;99.90;;;;;;5012091;28;20116;-71
2022/12/05 08:38:25;;;;;;;0.00;0.00;;;6.40;99.90;;;;;;5008072;28;20058;-72
2022/12/05 08:40:51;;;;;;;0.00;0.00;;;6.40;99.90;;;;;;5009313;28;20476;-73
2022/12/05 08:43:16;;;;;;;0.00;0.00;;;6.50;99.90;;;;;;5009831;28;20021;-72
2022/12/05 08:45:49;;;;;;;0.00;0.00;;;6.60;99.90;;;;;;5003337;28;20030;-71
2022/12/05 08:48:14;;;;;;;0.00;0.00;;;6.60;99.90;;;;;;5008623;28;20370;-72
2022/12/05 08:50:40;;;;;;;0.00;0.00;;;6.50;99.90;;;;;;5006863;28;20041;-72
2022/12/05 08:53:06;;;;;;;0.00;0.00;;;6.50;99.90;;;;;;5000665;28;20038;-75
2022/12/05 08:55:34;;;;;;;0.00;0.00;;;6.50;99.90;;;;;;5009804;28;20029;-73
2022/12/05 08:57:59;;;;;;;0.00;0.00;;;6.60;99.90;;;;;;5009829;28;20088;-72
2022/12/05 09:00:25;;;;;;;0.00;0.00;;;6.50;99.90;;;;;;5010522;28;20034;-74
2022/12/05 09:02:51;;;;;;;0.00;0.00;;;6.50;99.90;;;;;;5009074;28;20562;-73
2022/12/05 09:05:17;;;;;;;0.00;0.00;;;6.50;99.90;;;;;;5010681;28;20057;-73
2022/12/05 09:07:42;;;;;;;0.00;0.00;;;6.60;99.90;;;;;;5011086;28;20069;-72
2022/12/05 09:10:09;;;;;;;0.00;0.00;;;6.70;99.90;;;;;;5009313;28;20026;-72
2022/12/05 09:12:36;;;;;;;0.00;0.00;;;6.80;99.90;;;;;;5006879;28;20135;-72
2022/12/05 09:15:01;;;;;;;0.00;0.00;;;6.90;99.90;;;;;;5009769;28;20120;-74
2022/12/05 09:17:27;;;;;;;0.00;0.00;;;6.90;99.90;;;;;;5010380;28;20041;-72
2022/12/05 09:19:52;;;;;;;0.00;0.00;;;6.90;99.90;;;;;;5010054;28;20600;-73
2022/12/05 09:22:18;;;;;;;0.00;0.00;;;6.90;99.90;;;;;;5008951;28;20051;-71
2022/12/05 09:24:44;;;;;;;0.00;0.00;;;7.00;99.90;;;;;;5002022;28;20448;-69
2022/12/05 09:27:09;;;;;;;0.00;0.00;;;7.00;99.90;;;;;;5008710;28;20037;-71
2022/12/05 09:29:36;;;;;;;0.00;0.00;;;7.10;99.90;;;;;;5005825;28;20388;-73
2022/12/05 09:32:01;;;;;;;0.00;0.00;;;7.10;99.90;;;;;;5009328;28;20033;-71
2022/12/05 09:34:28;;;;;;;0.00;0.00;;;7.10;99.90;;;;;;5012233;28;20026;-70
2022/12/05 09:36:53;;;;;;;0.00;0.00;;;7.20;99.90;;;;;;5012336;28;20026;-72
2022/12/05 09:39:19;;;;;;;0.00;0.00;;;7.30;99.90;;;;;;4994472;28;20484;-71
2022/12/05 09:42:09;;;;;;;0.00;0.00;;;7.40;99.90;;;;;;4998431;28;20027;-70
2022/12/05 09:44:47;;;;;;;0.00;0.00;;;7.30;99.90;;;;;;5002201;28;20527;-71
2022/12/05 09:47:22;;;;;;;0.00;0.00;;;7.30;99.90;;;;;;5004108;28;20546;-71
2022/12/05 09:49:54;;;;;;;0.00;0.00;;;7.30;99.90;;;;;;4995400;28;20030;-71
2022/12/05 09:52:37;;;;;;;0.00;0.00;;;7.40;99.90;;;;;;4998084;28;20042;-71
2022/12/05 09:55:10;;;;;;;0.00;0.00;;;7.40;99.90;;;;;;5005204;28;20591;-68
2022/12/05 09:57:43;;;;;;;0.00;0.00;;;7.40;99.90;;;;;;5003572;28;20041;-70
2022/12/05 10:00:10;;;;;;;0.00;0.00;;;7.40;99.90;;;;;;4998571;28;20681;-69
2022/12/05 10:02:56;;;;;;;0.00;0.00;;;7.50;99.90;;;;;;5004288;28;20373;-67
2022/12/05 10:05:35;;;;;;;0.00;0.00;;;7.50;99.90;;;;;;5002723;28;20026;-65
2022/12/05 10:08:05;;;;;;;0.00;0.00;;;7.60;99.90;;;;;;5013476;28;20030;-70
2022/12/05 10:11:05;;;;;;;0.00;0.00;;;7.40;99.90;;;;;;5006848;28;20056;-68
2022/12/05 10:13:59;;;;;;;0.00;0.00;;;7.50;99.90;;;;;;5007998;28;20480;-70
2022/12/05 10:16:32;;;;;;;0.00;0.00;;;7.70;99.90;;;;;;5001089;28;20041;-68
2022/12/05 10:19:04;;;;;;;0.00;0.00;;;7.80;99.90;;;;;;5008585;28;20129;-68
2022/12/05 10:21:46;;;;;;;0.00;0.00;;;7.70;99.90;;;;;;5012738;28;20017;-68
2022/12/05 10:24:16;;;;;;;0.00;0.00;;;7.50;99.90;;;;;;5012656;28;20057;-68
2022/12/05 10:26:51;;;;;;;0.00;0.00;;;7.50;99.90;;;;;;5011167;28;20034;-69
2022/12/05 10:29:27;;;;;;;0.00;0.00;;;7.70;99.90;;;;;;5009859;28;20388;-68
2022/12/05 10:32:01;;;;;;;0.00;0.00;;;7.70;99.90;;;;;;5010624;28;20544;-67
2022/12/05 10:34:42;;;;;;;0.00;0.00;;;7.60;99.90;;;;;;5010020;28;20408;-68
2022/12/05 10:37:22;;;;;;;0.00;0.00;;;7.60;99.90;;;;;;5011347;28;20436;-68
2022/12/05 10:39:49;;;;;;;0.00;0.00;;;7.60;99.90;;;;;;5011757;28;20026;-69
2022/12/05 10:42:19;;;;;;;0.00;0.00;;;7.70;99.90;;;;;;5012254;28;20034;-69
2022/12/05 10:44:45;;;;;;;0.00;0.00;;;7.70;99.90;;;;;;5010850;28;20116;-68
2022/12/05 10:47:11;;;;;;;0.00;0.00;;;7.90;99.90;;;;;;5011527;28;20118;-68
2022/12/05 10:49:39;;;;;;;0.00;0.00;;;8.00;99.90;;;;;;5010748;28;20042;-68
2022/12/05 10:52:05;;;;;;;0.00;0.00;;;7.90;99.90;;;;;;5010616;28;20125;-67
2022/12/05 10:54:38;;;;;;;0.00;0.00;;;8.00;99.90;;;;;;5011442;28;20109;-68
2022/12/05 10:57:21;;;;;;;0.00;0.00;;;8.00;99.90;;;;;;5010982;28;20444;-68
2022/12/05 10:59:47;;;;;;;0.00;0.00;;;8.00;99.90;;;;;;5012096;28;20157;-68
2022/12/05 11:02:30;;;;;;;0.00;0.00;;;7.90;99.90;;;;;;5010913;28;20337;-69
2022/12/05 11:04:57;;;;;;;0.00;0.00;;;7.90;99.90;;;;;;5009358;28;20025;-68
2022/12/05 11:07:28;;;;;;;0.00;0.00;;;7.80;99.90;;;;;;5009560;28;20030;-67
2022/12/05 11:09:54;;;;;;;0.00;0.00;;;7.90;99.90;;;;;;5011434;28;20080;-69
2022/12/05 11:12:28;;;;;;;0.00;0.00;;;8.00;99.90;;;;;;5003439;28;20391;-67
2022/12/05 11:15:01;;;;;;;0.00;0.00;;;8.10;99.90;;;;;;5001449;28;20440;-68
2022/12/05 11:17:38;;;;;;;0.00;0.00;;;8.10;99.90;;;;;;5018293;28;20065;-69
2022/12/05 11:20:24;;;;;;;0.00;0.00;;;8.10;99.90;;;;;;5004163;28;20030;-68
2022/12/05 11:22:55;;;;;;;0.00;0.00;;;8.10;99.90;;;;;;5008925;28;20062;-69
2022/12/05 11:25:29;;;;;;;0.00;0.00;;;8.10;99.90;;;;;;5027622;28;20033;-68
2022/12/05 11:28:23;;;;;;;0.00;0.00;;;8.10;99.90;;;;;;5011352;28;20026;-68
2022/12/05 11:30:54;;;;;;;0.00;0.00;;;8.10;99.90;;;;;;5011004;28;20088;-68
2022/12/05 11:33:26;;;;;;;0.00;0.00;;;8.00;99.90;;;;;;5016298;28;20053;-68
2022/12/05 11:35:54;;;;;;;0.00;0.00;;;8.10;99.90;;;;;;5017452;28;20050;-67
2022/12/05 11:38:27;;;;;;;0.00;0.00;;;8.20;99.90;;;;;;5016789;28;20026;-68
2022/12/05 11:41:15;;;;;;;0.00;0.00;;;8.20;99.90;;;;;;5017061;28;20034;-68
2022/12/05 11:43:59;;;;;;;0.00;0.00;;;8.20;99.90;;;;;;5017732;28;20452;-69
2022/12/05 11:47:08;;;;;;;0.00;0.00;;;8.40;99.90;;;;;;5014063;28;20134;-70
2022/12/05 11:49:59;;;;;;;0.00;0.00;;;8.50;99.90;;;;;;5016546;28;20036;-69
2022/12/05 11:53:02;;;;;;;0.00;0.00;;;8.50;99.90;;;;;;5017600;28;20029;-70
2022/12/05 11:56:03;;;;;;;0.00;0.00;;;8.50;99.90;;;;;;5017449;28;20032;-68
2022/12/05 11:58:47;;;;;;;0.00;0.00;;;8.60;99.90;;;;;;5013306;28;20471;-68
2022/12/05 12:01:45;;;;;;;0.00;0.00;;;8.60;99.90;;;;;;5009733;28;20079;-69
2022/12/05 12:04:48;;;;;;;0.00;0.00;;;8.50;99.90;;;;;;5010202;28;20424;-69
2022/12/05 12:07:29;;;;;;;0.00;0.00;;;8.40;99.90;;;;;;5010485;28;20021;-69
2022/12/05 12:10:13;;;;;;;0.00;0.00;;;8.50;99.90;;;;;;5012201;28;20120;-68
2022/12/05 12:12:48;;;;;;;0.00;0.00;;;8.60;99.90;;;;;;5013806;28;20034;-68
2022/12/05 12:15:29;;;;;;;0.00;0.00;;;8.70;99.90;;;;;;5010803;28;20022;-69
2022/12/05 12:18:15;;;;;;;0.00;0.00;;;8.80;99.90;;;;;;5011420;28;20033;-68
2022/12/05 12:20:55;;;;;;;0.00;0.00;;;8.90;99.90;;;;;;5009298;28;20034;-69
2022/12/05 12:23:44;;;;;;;0.00;0.00;;;8.90;99.90;;;;;;5009163;28;20022;-67
2022/12/05 12:26:15;;;;;;;0.00;0.00;;;9.00;99.90;;;;;;5024071;28;20030;-69
2022/12/05 12:29:02;;;;;;;0.00;0.00;;;9.00;99.90;;;;;;5006598;28;20479;-70
2022/12/05 12:32:04;;;;;;;0.00;0.00;;;8.90;99.90;;;;;;5006806;28;20144;-69
2022/12/05 12:35:02;;;;;;;0.00;0.00;;;9.00;99.90;;;;;;5011403;28;20183;-69
2022/12/05 12:37:45;;;;;;;0.00;0.00;;;9.00;99.90;;;;;;5010680;28;20037;-69
2022/12/05 12:40:21;;;;;;;0.00;0.00;;;9.10;99.90;;;;;;5011281;28;20033;-68
2022/12/05 12:43:32;;;;;;;0.00;0.00;;;9.10;99.90;;;;;;5011746;28;20518;-71
2022/12/05 12:46:32;;;;;;;0.00;0.00;;;9.10;99.90;;;;;;5027684;28;20057;-69
2022/12/05 12:49:37;;;;;;;0.00;0.00;;;9.00;99.90;;;;;;5008338;28;20074;-67
2022/12/05 12:52:14;;;;;;;0.00;0.00;;;9.00;99.90;;;;;;5011391;28;20030;-70
2022/12/05 12:54:56;;;;;;;0.00;0.00;;;8.90;99.90;;;;;;5008403;28;20105;-69
2022/12/05 12:57:34;;;;;;;0.00;0.00;;;8.90;99.90;;;;;;5011755;28;20522;-67
2022/12/05 13:00:12;;;;;;;0.00;0.00;;;9.00;99.90;;;;;;5007830;28;20026;-68
2022/12/05 13:02:40;;;;;;;0.00;0.00;;;8.90;99.90;;;;;;5005366;28;20079;-67
2022/12/05 13:05:28;;;;;;;0.00;0.00;;;9.00;99.90;;;;;;5009550;28;20109;-69
2022/12/05 13:08:00;;;;;;;0.00;0.00;;;9.00;99.90;;;;;;5008795;28;20490;-69
2022/12/05 13:10:36;;;;;;;0.00;0.00;;;8.80;99.90;;;;;;5005410;28;20044;-69
2022/12/05 13:13:05;;;;;;;0.00;0.00;;;8.80;99.90;;;;;;5009673;28;20037;-70
2022/12/05 13:16:11;;;;;;;0.00;0.00;;;8.80;99.90;;;;;;5010367;28;20090;-68
2022/12/05 13:18:37;;;;;;;0.00;0.00;;;8.80;99.90;;;;;;5026833;28;20491;-69
2022/12/05 13:21:06;;;;;;;0.00;0.00;;;8.80;99.90;;;;;;5027169;28;20036;-68
2022/12/05 13:23:55;;;;;;;0.00;0.00;;;8.90;99.90;;;;;;5017484;28;21630;-68
2022/12/05 13:26:22;;;;;;;0.00;0.00;;;8.90;99.90;;;;;;5005766;28;20077;-70
2022/12/05 13:29:00;;;;;;;0.00;0.00;;;8.90;99.90;;;;;;5006324;28;20033;-68
2022/12/05 13:31:44;;;;;;;0.00;0.00;;;8.90;99.90;;;;;;5012015;28;20531;-66
2022/12/05 13:34:46;;;;;;;0.00;0.00;;;8.80;99.90;;;;;;5010617;28;20056;-68